createdAt,value
2022-08-12T00:01:12.622Z,23.31
2022-08-12T00:03:58.772Z,23.30
2022-08-12T00:06:46.462Z,23.32
2022-08-12T00:09:32.456Z,23.20
2022-08-12T00:12:18.404Z,23.12
2022-08-12T00:15:04.636Z,23.03
2022-08-12T00:17:51.877Z,23.03
2022-08-12T00:20:37.987Z,23.07
2022-08-12T00:23:24.148Z,23.05
2022-08-12T00:26:22.495Z,23.06
2022-08-12T00:29:11.605Z,23.05
2022-08-12T00:31:58.646Z,23.03
2022-08-12T00:34:49.124Z,22.99
2022-08-12T00:37:39.243Z,22.88
2022-08-12T00:40:27.552Z,22.79
2022-08-12T00:42:56.092Z,22.75
2022-08-12T00:45:23.522Z,22.69
2022-08-12T00:47:53.325Z,22.64
2022-08-12T00:50:23.248Z,22.62
2022-08-12T00:52:52.882Z,22.65
2022-08-12T00:55:20.514Z,22.58
2022-08-12T00:57:50.836Z,22.55
2022-08-12T01:00:24.481Z,22.51
2022-08-12T01:02:55.676Z,22.60
2022-08-12T01:05:43.689Z,22.55
2022-08-12T01:08:29.438Z,22.42
2022-08-12T01:11:16.600Z,22.45
2022-08-12T01:13:50.929Z,22.36
2022-08-12T01:16:23.258Z,22.41
2022-08-12T01:18:53.083Z,22.38
2022-08-12T01:21:44.153Z,22.39
2022-08-12T01:24:49.061Z,22.39
2022-08-12T01:27:18.484Z,22.37
2022-08-12T01:29:48.959Z,22.35
2022-08-12T01:32:19.000Z,22.31
2022-08-12T01:35:14.041Z,22.34
2022-08-12T01:37:56.631Z,22.33
2022-08-12T01:40:37.934Z,22.27
2022-08-12T01:43:10.109Z,22.32
2022-08-12T01:46:08.570Z,22.26
2022-08-12T01:48:50.459Z,22.28
2022-08-12T01:52:21.022Z,22.25
2022-08-12T01:54:38.633Z,22.30
2022-08-12T01:57:06.053Z,22.29
2022-08-12T01:59:47.433Z,22.24
2022-08-12T02:02:22.275Z,22.19
2022-08-12T02:05:43.469Z,22.21
2022-08-12T02:08:41.520Z,22.12
2022-08-12T02:11:19.086Z,22.10
2022-08-12T02:13:50.846Z,22.01
2022-08-12T02:16:36.437Z,21.96
2022-08-12T02:19:38.799Z,21.98
2022-08-12T02:22:17.461Z,21.94
2022-08-12T02:24:49.086Z,21.82
2022-08-12T02:27:19.731Z,21.90
2022-08-12T02:29:48.270Z,21.94
2022-08-12T02:32:16.101Z,21.93
2022-08-12T02:34:45.135Z,21.80
2022-08-12T02:37:15.631Z,21.74
2022-08-12T02:39:49.614Z,21.78
2022-08-12T02:42:20.656Z,21.78
2022-08-12T02:44:52.335Z,21.72
2022-08-12T02:47:59.204Z,21.68
2022-08-12T02:50:14.717Z,21.62
2022-08-12T02:52:43.763Z,21.62
2022-08-12T02:55:34.083Z,21.57
2022-08-12T02:58:09.220Z,21.53
2022-08-12T03:00:41.606Z,21.56
2022-08-12T03:03:12.983Z,21.51
2022-08-12T03:06:13.311Z,21.49
2022-08-12T03:08:42.334Z,21.40
2022-08-12T03:11:42.798Z,21.43
2022-08-12T03:14:18.125Z,21.34
2022-08-12T03:16:50.345Z,21.27
2022-08-12T03:19:21.803Z,21.24
2022-08-12T03:22:09.105Z,21.20
2022-08-12T03:24:42.378Z,21.19
2022-08-12T03:27:14.385Z,21.17
2022-08-12T03:29:50.270Z,21.08
2022-08-12T03:32:35.627Z,21.08
2022-08-12T03:35:07.906Z,21.07
2022-08-12T03:37:37.329Z,21.08
2022-08-12T03:40:05.384Z,20.97
2022-08-12T03:42:40.866Z,20.98
2022-08-12T03:45:32.036Z,20.98
2022-08-12T03:48:32.673Z,21.02
2022-08-12T03:51:19.007Z,21.01
2022-08-12T03:54:05.148Z,20.91
2022-08-12T03:56:52.937Z,20.84
2022-08-12T03:59:38.726Z,20.77
2022-08-12T04:02:07.990Z,20.66
2022-08-12T04:04:36.691Z,20.68
2022-08-12T04:07:09.260Z,20.67
2022-08-12T04:09:40.364Z,20.63
2022-08-12T04:12:40.122Z,20.70
2022-08-12T04:15:18.603Z,20.71
2022-08-12T04:18:06.896Z,20.59
2022-08-12T04:20:36.605Z,20.61
2022-08-12T04:23:05.514Z,20.58
2022-08-12T04:25:37.514Z,20.58
2022-08-12T04:28:13.581Z,20.56
2022-08-12T04:30:42.013Z,20.47
2022-08-12T04:33:10.147Z,20.41
2022-08-12T04:35:38.707Z,20.32
2022-08-12T04:38:07.503Z,20.35
2022-08-12T04:40:39.692Z,20.40
2022-08-12T04:43:54.505Z,20.42
2022-08-12T04:45:55.913Z,20.41
2022-08-12T04:48:23.299Z,20.39
2022-08-12T04:50:50.911Z,20.37
2022-08-12T04:53:18.601Z,20.35
2022-08-12T04:55:47.861Z,20.37
2022-08-12T04:58:15.244Z,20.48
2022-08-12T05:00:57.543Z,20.47
2022-08-12T05:03:28.099Z,20.46
2022-08-12T05:05:59.188Z,20.48
2022-08-12T05:08:26.955Z,20.51
2022-08-12T05:10:54.566Z,20.49
2022-08-12T05:13:32.013Z,20.54
2022-08-12T05:16:04.858Z,20.70
2022-08-12T05:18:35.446Z,20.67
2022-08-12T05:21:08.384Z,20.81
2022-08-12T05:23:38.296Z,20.84
2022-08-12T05:26:06.249Z,20.84
2022-08-12T05:28:34.547Z,20.80
2022-08-12T05:31:02.612Z,20.85
2022-08-12T05:33:39.572Z,20.95
2022-08-12T05:36:08.590Z,21.01
2022-08-12T05:38:59.913Z,21.03
2022-08-12T05:41:32.839Z,21.10
2022-08-12T05:44:06.770Z,21.22
2022-08-12T05:46:36.012Z,21.20
2022-08-12T05:49:04.790Z,21.24
2022-08-12T05:51:40.271Z,21.39
2022-08-12T05:54:10.439Z,21.55
2022-08-12T05:56:38.055Z,21.65
2022-08-12T05:59:07.665Z,21.85
2022-08-12T06:02:12.395Z,21.88
2022-08-12T06:04:23.620Z,21.95
2022-08-12T06:06:53.560Z,22.01
2022-08-12T06:09:22.851Z,22.09
2022-08-12T06:12:04.710Z,22.20
2022-08-12T06:14:36.761Z,22.40
2022-08-12T06:17:05.980Z,22.46
2022-08-12T06:20:22.810Z,22.58
2022-08-12T06:22:20.825Z,22.65
2022-08-12T06:24:49.847Z,22.84
2022-08-12T06:27:19.065Z,22.87
2022-08-12T06:30:09.765Z,22.99
2022-08-12T06:32:34.586Z,23.19
2022-08-12T06:35:25.566Z,23.27
2022-08-12T06:37:56.446Z,23.44
2022-08-12T06:40:44.189Z,23.54
2022-08-12T06:43:13.181Z,23.70
2022-08-12T06:45:49.233Z,23.72
2022-08-12T06:48:17.384Z,23.84
2022-08-12T06:50:46.199Z,24.03
2022-08-12T06:53:13.595Z,24.09
2022-08-12T06:55:57.679Z,24.27
2022-08-12T06:58:26.755Z,24.27
2022-08-12T07:00:56.045Z,24.40
2022-08-12T07:03:30.161Z,24.42
2022-08-12T07:05:58.531Z,24.53
2022-08-12T07:08:29.318Z,24.72
2022-08-12T07:11:09.370Z,24.88
2022-08-12T07:14:02.442Z,25.00
2022-08-12T07:16:49.495Z,25.12
2022-08-12T07:19:17.325Z,25.32
2022-08-12T07:22:00.095Z,25.30
2022-08-12T07:24:30.579Z,25.46
2022-08-12T07:26:58.264Z,25.53
2022-08-12T07:29:58.035Z,25.68
2022-08-12T07:32:13.524Z,26.01
2022-08-12T07:34:42.350Z,26.01
2022-08-12T07:37:09.711Z,26.17
2022-08-12T07:39:37.281Z,26.23
2022-08-12T07:42:18.608Z,26.29
2022-08-12T07:44:47.223Z,26.52
2022-08-12T07:47:19.106Z,26.55
2022-08-12T07:50:05.874Z,26.71
2022-08-12T07:52:38.510Z,26.95
2022-08-12T07:55:06.751Z,26.89
2022-08-12T07:57:35.313Z,27.00
2022-08-12T08:00:05.623Z,27.19
2022-08-12T08:02:35.814Z,27.21
2022-08-12T08:05:04.476Z,27.37
2022-08-12T08:07:31.870Z,27.53
2022-08-12T08:10:05.050Z,27.60
2022-08-12T08:12:51.087Z,27.65
2022-08-12T08:15:20.201Z,27.91
2022-08-12T08:18:06.453Z,28.13
2022-08-12T08:20:38.066Z,28.28
2022-08-12T08:23:15.358Z,28.27
2022-08-12T08:25:43.565Z,28.49
2022-08-12T08:28:13.791Z,28.57
2022-08-12T08:30:44.397Z,28.72
2022-08-12T08:33:23.580Z,28.82
2022-08-12T08:36:02.948Z,29.01
2022-08-12T08:38:32.789Z,29.12
2022-08-12T08:42:16.226Z,29.21
2022-08-12T08:44:11.420Z,29.28
2022-08-12T08:46:40.479Z,29.44
2022-08-12T08:49:08.613Z,29.53
2022-08-12T08:51:36.523Z,29.72
2022-08-12T08:54:04.186Z,29.57
2022-08-12T08:56:31.580Z,29.63
2022-08-12T08:58:59.590Z,29.83
2022-08-12T09:01:37.329Z,29.97
2022-08-12T09:05:12.984Z,30.01
2022-08-12T09:06:56.719Z,30.21
2022-08-12T09:09:24.455Z,30.39
2022-08-12T09:12:23.735Z,30.64
2022-08-12T09:14:55.118Z,30.67
2022-08-12T09:17:22.641Z,30.74
2022-08-12T09:19:57.317Z,30.59
2022-08-12T09:22:29.167Z,30.74
2022-08-12T09:24:59.888Z,30.84
2022-08-12T09:30:16.633Z,31.15
2022-08-12T09:33:05.330Z,31.26
2022-08-12T09:35:44.227Z,31.33
2022-08-12T09:38:28.109Z,31.49
2022-08-12T09:42:07.395Z,31.60
2022-08-12T09:44:05.782Z,31.52
2022-08-12T09:46:34.474Z,31.71
2022-08-12T09:49:04.225Z,30.90
2022-08-12T09:51:44.119Z,30.32
2022-08-12T09:54:33.257Z,29.89
2022-08-12T09:58:07.953Z,29.51
2022-08-12T10:00:17.721Z,29.27
2022-08-12T10:02:42.516Z,29.11
2022-08-12T10:05:17.724Z,29.00
2022-08-12T10:07:47.579Z,28.95
2022-08-12T10:10:22.649Z,28.86
2022-08-12T10:13:35.843Z,28.80
2022-08-12T10:16:06.431Z,28.75
2022-08-12T10:18:37.361Z,28.71
2022-08-12T10:21:36.181Z,28.65
2022-08-12T10:24:09.453Z,28.58
2022-08-12T10:26:57.773Z,28.58
2022-08-12T10:30:38.976Z,28.59
2022-08-12T10:32:42.926Z,28.55
2022-08-12T10:35:13.508Z,28.51
2022-08-12T10:38:34.847Z,28.48
2022-08-12T10:40:32.980Z,28.47
2022-08-12T10:43:20.030Z,28.49
2022-08-12T10:45:58.347Z,28.46
2022-08-12T10:48:33.667Z,28.43
2022-08-12T10:52:04.435Z,28.41
2022-08-12T10:53:54.277Z,28.38
2022-08-12T10:56:34.698Z,28.37
2022-08-12T10:59:05.308Z,28.37
2022-08-12T11:04:17.287Z,28.34
2022-08-12T11:04:35.430Z,28.34
2022-08-12T11:08:36.920Z,28.34
2022-08-12T11:10:01.797Z,28.32
2022-08-12T11:12:56.675Z,28.33
2022-08-12T11:15:33.427Z,28.28
2022-08-12T11:18:18.393Z,28.25
2022-08-12T11:20:48.523Z,28.23
2022-08-12T11:23:25.149Z,28.18
2022-08-12T11:26:06.208Z,28.25
2022-08-12T11:28:37.130Z,28.22
2022-08-12T11:31:14.190Z,28.26
2022-08-12T11:34:04.208Z,28.25
2022-08-12T11:36:33.503Z,28.23
2022-08-12T11:39:07.810Z,28.23
2022-08-12T11:41:40.322Z,28.24
2022-08-12T11:44:36.519Z,28.25
2022-08-12T11:46:58.977Z,28.21
2022-08-12T11:49:32.330Z,28.23
2022-08-12T11:52:04.010Z,28.26
2022-08-12T11:54:32.109Z,28.21
2022-08-12T11:57:03.007Z,28.26
2022-08-12T12:02:37.152Z,28.22
2022-08-12T12:05:05.271Z,28.19
2022-08-12T12:08:35.904Z,28.29
2022-08-12T12:10:21.167Z,28.33
2022-08-12T12:12:49.778Z,28.41
2022-08-12T12:15:25.460Z,28.39
2022-08-12T12:18:06.106Z,28.33
2022-08-12T12:20:35.389Z,28.40
2022-08-12T12:23:03.996Z,28.40
2022-08-12T12:26:06.499Z,28.29
2022-08-12T12:28:35.268Z,28.31
2022-08-12T12:31:14.768Z,28.31
2022-08-12T12:33:57.691Z,28.32
2022-08-12T12:36:30.157Z,28.27
2022-08-12T12:39:00.039Z,28.26
2022-08-12T12:42:43.820Z,28.29
2022-08-12T12:44:25.935Z,28.26
2022-08-12T12:47:03.505Z,28.40
2022-08-12T12:49:30.853Z,28.42
2022-08-12T12:52:19.601Z,28.36
2022-08-12T12:54:52.778Z,28.36
2022-08-12T12:57:35.811Z,28.33
2022-08-12T13:00:17.383Z,28.31
2022-08-12T13:02:58.024Z,28.20
2022-08-12T13:05:28.279Z,28.25
2022-08-12T13:08:01.357Z,28.28
2022-08-12T13:10:36.867Z,28.27
2022-08-12T13:14:07.707Z,28.22
2022-08-12T13:15:54.059Z,28.25
2022-08-12T13:18:30.901Z,28.27
2022-08-12T13:20:59.342Z,28.29
2022-08-12T13:23:36.779Z,28.28
2022-08-12T13:26:05.763Z,28.33
2022-08-12T13:28:33.500Z,28.31
2022-08-12T13:31:01.748Z,28.30
2022-08-12T13:34:33.551Z,28.38
2022-08-12T13:36:20.412Z,28.52
2022-08-12T13:38:54.473Z,28.58
2022-08-12T13:41:34.116Z,28.46
2022-08-12T13:44:03.402Z,28.47
2022-08-12T13:46:31.326Z,28.40
2022-08-12T13:48:58.901Z,28.43
2022-08-12T13:51:26.986Z,28.40
2022-08-12T13:54:11.639Z,28.40
2022-08-12T13:56:41.435Z,28.42
2022-08-12T13:59:20.443Z,28.47
2022-08-12T14:01:54.302Z,28.48
2022-08-12T14:04:24.343Z,28.50
2022-08-12T14:06:54.339Z,28.53
2022-08-12T14:09:22.013Z,28.54
2022-08-12T14:11:59.104Z,28.52
2022-08-12T14:14:31.804Z,28.57
2022-08-12T14:17:10.401Z,28.54
2022-08-12T14:20:01.337Z,28.52
2022-08-12T14:22:30.390Z,28.60
2022-08-12T14:24:59.194Z,28.62
2022-08-12T14:28:03.865Z,28.65
2022-08-12T14:30:28.770Z,28.64
2022-08-12T14:32:57.710Z,28.62
2022-08-12T14:35:25.119Z,28.70
2022-08-12T14:37:55.899Z,28.77
2022-08-12T14:40:30.233Z,28.75
2022-08-12T14:43:02.705Z,28.77
2022-08-12T14:45:44.217Z,28.77
2022-08-12T14:48:18.727Z,28.78
2022-08-12T14:51:02.821Z,28.82
2022-08-12T14:59:56.295Z,28.75
2022-08-12T15:02:20.937Z,28.71
2022-08-12T15:04:56.193Z,28.72
2022-08-12T15:07:33.746Z,28.78
2022-08-12T15:10:13.392Z,28.85
2022-08-12T15:12:41.081Z,28.92
2022-08-12T15:15:10.555Z,28.90
2022-08-12T15:17:40.156Z,28.89
2022-08-12T15:20:31.791Z,28.91
2022-08-12T15:22:57.901Z,28.91
2022-08-12T15:25:27.130Z,28.91
2022-08-12T15:28:04.683Z,28.91
2022-08-12T15:30:34.706Z,28.87
2022-08-12T15:33:12.866Z,28.85
2022-08-12T15:35:50.167Z,28.88
2022-08-12T15:38:24.863Z,28.85
2022-08-12T15:40:54.163Z,28.84
2022-08-12T15:43:35.301Z,28.88
2022-08-12T15:46:15.019Z,34.47
2022-08-12T15:48:46.649Z,35.08
2022-08-12T15:51:58.186Z,35.17
2022-08-12T15:54:34.369Z,35.21
2022-08-12T15:57:05.825Z,35.14
2022-08-12T16:00:00.630Z,35.40
2022-08-12T16:02:26.837Z,35.27
2022-08-12T16:04:55.179Z,35.08
2022-08-12T16:07:25.889Z,35.07
2022-08-12T16:10:07.074Z,35.13
2022-08-12T16:12:43.340Z,35.40
2022-08-12T16:15:13.632Z,35.20
2022-08-12T16:18:18.068Z,35.11
2022-08-12T16:20:34.025Z,35.07
2022-08-12T16:23:51.102Z,35.12
2022-08-12T16:26:06.093Z,35.06
2022-08-12T16:28:42.732Z,35.17
2022-08-12T16:31:18.674Z,35.12
2022-08-12T16:33:59.285Z,35.13
2022-08-12T16:36:29.346Z,35.16
2022-08-12T16:38:56.851Z,34.87
2022-08-12T16:41:24.174Z,34.76
2022-08-12T16:43:53.464Z,34.74
2022-08-12T16:46:33.398Z,34.84
2022-08-12T16:49:04.162Z,34.76
2022-08-12T16:51:40.192Z,34.80
2022-08-12T16:54:13.983Z,34.70
2022-08-12T16:56:50.840Z,34.64
2022-08-12T16:59:22.897Z,34.60
2022-08-12T17:01:51.809Z,34.58
2022-08-12T17:04:19.636Z,34.58
2022-08-12T17:06:52.625Z,34.59
2022-08-12T17:09:19.962Z,34.62
2022-08-12T17:11:49.614Z,34.49
2022-08-12T17:14:20.273Z,34.47
2022-08-12T17:16:52.115Z,34.47
2022-08-12T17:19:20.625Z,34.38
2022-08-12T17:22:09.844Z,34.34
2022-08-12T17:24:44.119Z,34.31
2022-08-12T17:27:23.296Z,34.31
2022-08-12T17:30:01.192Z,34.28
2022-08-12T17:32:35.047Z,34.16
2022-08-12T17:35:21.607Z,34.15
2022-08-12T17:37:48.802Z,34.04
2022-08-12T17:40:35.255Z,33.99
2022-08-12T17:43:57.756Z,33.92
2022-08-12T17:45:59.032Z,33.85
2022-08-12T17:48:34.822Z,33.72
2022-08-12T17:51:16.007Z,33.70
2022-08-12T17:54:11.808Z,33.68
2022-08-12T17:56:37.270Z,33.56
2022-08-12T17:59:07.391Z,33.53
2022-08-12T18:01:36.530Z,33.41
2022-08-12T18:04:22.888Z,33.30
2022-08-12T18:06:55.865Z,33.24
2022-08-12T18:09:32.246Z,33.11
2022-08-12T18:12:24.543Z,32.97
2022-08-12T18:15:08.845Z,32.86
2022-08-12T18:17:39.673Z,32.74
2022-08-12T18:20:15.730Z,32.69
2022-08-12T18:22:45.081Z,32.57
2022-08-12T18:26:12.212Z,32.44
2022-08-12T18:28:28.994Z,32.31
2022-08-12T18:31:03.210Z,32.22
2022-08-12T18:33:41.690Z,32.10
2022-08-12T18:36:13.887Z,31.98
2022-08-12T18:38:44.976Z,31.92
2022-08-12T18:41:30.640Z,31.80
2022-08-12T18:44:09.807Z,31.65
2022-08-12T18:46:59.585Z,31.46
2022-08-12T18:49:39.377Z,31.22
2022-08-12T18:52:08.687Z,31.11
2022-08-12T18:54:54.048Z,30.99
2022-08-12T18:58:07.235Z,30.90
2022-08-12T19:00:22.159Z,30.81
2022-08-12T19:02:53.400Z,30.63
2022-08-12T19:05:23.358Z,30.57
2022-08-12T19:08:11.343Z,30.47
2022-08-12T19:10:42.990Z,30.38
2022-08-12T19:13:39.117Z,30.13
2022-08-12T19:16:12.467Z,30.11
2022-08-12T19:18:45.033Z,30.07
2022-08-12T19:21:15.917Z,29.95
2022-08-12T19:24:05.082Z,29.82
2022-08-12T19:26:35.781Z,29.77
2022-08-12T19:29:05.280Z,29.62
2022-08-12T19:31:56.593Z,29.56
2022-08-12T19:34:56.342Z,29.35
2022-08-12T19:38:02.737Z,29.14
2022-08-12T19:40:31.524Z,29.10
2022-08-12T19:43:18.922Z,29.02
2022-08-12T19:45:56.231Z,28.87
2022-08-12T19:48:30.513Z,28.93
2022-08-12T19:51:09.225Z,28.83
2022-08-12T19:53:57.892Z,28.70
2022-08-12T19:56:28.086Z,28.65
2022-08-12T19:59:19.227Z,28.49
2022-08-12T20:02:01.548Z,28.47
2022-08-12T20:04:38.834Z,28.43
2022-08-12T20:07:23.393Z,28.28
2022-08-12T20:09:53.767Z,28.17
2022-08-12T20:12:30.923Z,28.05
2022-08-12T20:15:05.202Z,28.02
2022-08-12T20:17:36.509Z,27.95
2022-08-12T20:20:21.129Z,27.82
2022-08-12T20:22:54.856Z,27.73
2022-08-12T20:25:28.252Z,27.55
2022-08-12T20:28:09.671Z,27.54
2022-08-12T20:30:53.401Z,27.58
2022-08-12T20:33:32.809Z,27.39
2022-08-12T20:36:41.077Z,27.38
2022-08-12T20:39:06.033Z,27.29
2022-08-12T20:41:58.592Z,27.18
2022-08-12T20:44:26.752Z,27.15
2022-08-12T20:46:56.044Z,27.06
2022-08-12T20:49:25.433Z,27.00
2022-08-12T20:51:57.993Z,26.97
2022-08-12T20:54:32.789Z,26.94
2022-08-12T20:57:08.791Z,26.80
2022-08-12T20:59:41.906Z,26.81
2022-08-12T21:02:15.368Z,26.76
2022-08-12T21:05:00.910Z,26.59
2022-08-12T21:07:28.967Z,26.47
2022-08-12T21:10:03.433Z,26.35
2022-08-12T21:12:34.288Z,26.24
2022-08-12T21:15:23.305Z,26.12
2022-08-12T21:18:09.705Z,26.05
2022-08-12T21:20:52.753Z,25.88
2022-08-12T21:23:25.402Z,25.96
2022-08-12T21:26:01.209Z,25.90
2022-08-12T21:28:31.178Z,25.91
2022-08-12T21:32:35.963Z,25.86
2022-08-12T21:34:07.855Z,25.85
2022-08-12T21:36:40.026Z,25.82
2022-08-12T21:39:21.036Z,25.81
2022-08-12T21:41:55.171Z,25.82
2022-08-12T21:45:44.271Z,25.82
2022-08-12T21:47:22.310Z,25.76
2022-08-12T21:50:02.957Z,25.75
2022-08-12T21:52:41.066Z,25.68
2022-08-12T21:55:18.196Z,25.57
2022-08-12T21:57:54.962Z,25.60
2022-08-12T22:00:35.089Z,25.60
2022-08-12T22:04:03.089Z,25.54
2022-08-12T22:06:30.764Z,25.44
2022-08-12T22:09:16.247Z,25.34
2022-08-12T22:11:56.311Z,25.37
2022-08-12T22:14:28.912Z,25.32
2022-08-12T22:16:57.524Z,25.32
2022-08-12T22:19:24.929Z,25.27
2022-08-12T22:21:56.194Z,25.22
2022-08-12T22:24:30.024Z,25.15
2022-08-12T22:27:14.499Z,25.08
2022-08-12T22:30:16.850Z,24.93
2022-08-12T22:32:51.493Z,24.85
2022-08-12T22:35:56.393Z,24.70
2022-08-12T22:38:25.110Z,24.67
2022-08-12T22:41:00.731Z,24.62
2022-08-12T22:44:00.469Z,24.57
2022-08-12T22:46:52.677Z,24.49
2022-08-12T22:49:36.899Z,24.55
2022-08-12T22:52:18.527Z,24.58
2022-08-12T22:55:03.375Z,24.46
2022-08-12T22:57:54.010Z,24.48
2022-08-12T23:00:24.035Z,24.53
2022-08-12T23:02:51.992Z,24.55
2022-08-12T23:05:57.680Z,24.52
2022-08-12T23:08:13.923Z,24.35
2022-08-12T23:10:46.454Z,24.38
2022-08-12T23:13:43.776Z,24.40
2022-08-12T23:16:28.031Z,24.45
2022-08-12T23:19:01.588Z,24.46
2022-08-12T23:22:04.197Z,24.44
2022-08-12T23:24:26.867Z,24.42
2022-08-12T23:27:13.040Z,24.41
2022-08-12T23:29:43.778Z,24.39
2022-08-12T23:32:36.352Z,24.27
2022-08-12T23:35:07.122Z,24.36
2022-08-12T23:37:47.327Z,24.25
2022-08-12T23:40:22.387Z,24.25
2022-08-12T23:42:54.908Z,24.28
2022-08-12T23:45:30.921Z,24.13
2022-08-12T23:48:01.280Z,24.10
2022-08-12T23:50:33.747Z,24.11
2022-08-12T23:53:06.638Z,24.02
2022-08-12T23:55:49.909Z,24.00
2022-08-12T23:58:23.301Z,23.97
